createdAt,value
2023-04-09T00:01:25.520Z,98.58
2023-04-09T00:03:54.113Z,98.38
2023-04-09T00:06:22.313Z,98.59
2023-04-09T00:08:52.014Z,98.59
2023-04-09T00:11:20.976Z,98.67
2023-04-09T00:13:49.330Z,98.84
2023-04-09T00:16:17.414Z,98.49
2023-04-09T00:18:45.843Z,98.43
2023-04-09T00:21:14.919Z,98.40
2023-04-09T00:23:43.149Z,98.50
2023-04-09T00:26:12.853Z,98.28
2023-04-09T00:28:41.373Z,98.26
2023-04-09T00:31:10.326Z,98.79
2023-04-09T00:33:38.493Z,99.13
2023-04-09T00:36:07.058Z,99.27
2023-04-09T00:38:35.378Z,99.03
2023-04-09T00:41:03.805Z,98.88
2023-04-09T00:43:33.392Z,98.73
2023-04-09T00:46:01.946Z,98.71
2023-04-09T00:48:30.813Z,98.76
2023-04-09T00:50:59.194Z,98.71
2023-04-09T00:53:27.643Z,98.71
2023-04-09T00:55:56.662Z,98.89
2023-04-09T00:58:25.192Z,99.13
2023-04-09T01:00:55.590Z,99.36
2023-04-09T01:03:23.808Z,99.74
2023-04-09T01:06:02.154Z,99.41
2023-04-09T01:08:39.435Z,99.58
2023-04-09T01:11:22.080Z,99.42
2023-04-09T01:14:00.155Z,98.66
2023-04-09T01:16:31.299Z,99.15
2023-04-09T01:19:04.105Z,99.17
2023-04-09T01:21:35.057Z,99.08
2023-04-09T01:24:18.960Z,98.73
2023-04-09T01:26:58.430Z,98.23
2023-04-09T01:29:36.764Z,97.70
2023-04-09T01:32:07.406Z,97.79
2023-04-09T01:34:38.654Z,98.23
2023-04-09T01:37:08.546Z,98.57
2023-04-09T01:39:38.854Z,99.08
2023-04-09T01:42:11.181Z,98.91
2023-04-09T01:44:42.055Z,99.01
2023-04-09T01:47:10.974Z,98.79
2023-04-09T01:52:13.368Z,99.53
2023-04-09T01:54:42.964Z,99.75
2023-04-09T01:57:11.312Z,99.60
2023-04-09T01:59:40.858Z,99.56
2023-04-09T02:02:13.676Z,99.85
2023-04-09T02:04:45.380Z,100.00
2023-04-09T02:07:20.103Z,99.92
2023-04-09T02:09:50.554Z,100.00
2023-04-09T02:12:20.058Z,100.00
2023-04-09T02:14:52.922Z,100.00
2023-04-09T02:17:21.280Z,100.00
2023-04-09T02:19:49.792Z,100.00
2023-04-09T02:22:18.708Z,100.00
2023-04-09T02:24:47.853Z,100.00
2023-04-09T02:27:16.287Z,100.00
2023-04-09T02:29:45.024Z,100.00
2023-04-09T02:32:15.762Z,100.00
2023-04-09T02:34:44.153Z,99.90
2023-04-09T02:37:12.611Z,100.00
2023-04-09T02:39:41.016Z,100.00
2023-04-09T02:42:09.083Z,100.00
2023-04-09T02:44:37.206Z,100.00
2023-04-09T02:47:06.157Z,100.00
2023-04-09T02:49:35.946Z,100.00
2023-04-09T02:52:04.377Z,100.00
2023-04-09T02:54:32.339Z,100.00
2023-04-09T02:57:01.112Z,100.00
2023-04-09T02:59:29.246Z,100.00
2023-04-09T03:01:57.781Z,100.00
2023-04-09T03:04:26.440Z,100.00
2023-04-09T03:06:56.141Z,100.00
2023-04-09T03:09:24.194Z,100.00
2023-04-09T03:11:52.424Z,100.00
2023-04-09T03:14:20.435Z,100.00
2023-04-09T03:16:48.846Z,99.99
2023-04-09T03:19:17.133Z,100.00
2023-04-09T03:21:46.443Z,99.91
2023-04-09T03:24:16.316Z,100.00
2023-04-09T03:26:44.774Z,100.00
2023-04-09T03:29:14.907Z,100.00
2023-04-09T03:31:43.157Z,100.00
2023-04-09T03:34:11.449Z,100.00
2023-04-09T03:36:39.506Z,100.00
2023-04-09T03:39:22.183Z,100.00
2023-04-09T03:41:50.756Z,100.00
2023-04-09T03:44:19.916Z,100.00
2023-04-09T03:47:06.504Z,100.00
2023-04-09T03:49:36.688Z,100.00
2023-04-09T03:52:14.872Z,100.00
2023-04-09T03:54:47.759Z,100.00
2023-04-09T03:57:20.726Z,100.00
2023-04-09T03:59:51.766Z,100.00
2023-04-09T04:02:22.514Z,100.00
2023-04-09T04:05:00.149Z,100.00
2023-04-09T04:07:33.843Z,100.00
2023-04-09T04:10:12.581Z,99.71
2023-04-09T04:12:45.094Z,100.00
2023-04-09T04:15:22.765Z,100.00
2023-04-09T04:17:55.768Z,100.00
2023-04-09T04:20:44.813Z,100.00
2023-04-09T04:23:15.486Z,100.00
2023-04-09T04:25:54.864Z,100.00
2023-04-09T04:28:29.684Z,100.00
2023-04-09T04:30:57.945Z,100.00
2023-04-09T04:33:40.428Z,100.00
2023-04-09T04:36:14.329Z,100.00
2023-04-09T04:38:51.797Z,100.00
2023-04-09T04:41:31.897Z,100.00
2023-04-09T04:44:13.886Z,100.00
2023-04-09T04:47:08.156Z,100.00
2023-04-09T04:49:36.706Z,100.00
2023-04-09T04:52:07.872Z,100.00
2023-04-09T04:54:39.628Z,100.00
2023-04-09T04:57:12.070Z,100.00
2023-04-09T04:59:42.381Z,100.00
2023-04-09T05:02:13.430Z,100.00
2023-04-09T05:05:17.895Z,100.00
2023-04-09T05:07:52.009Z,100.00
2023-04-09T05:10:22.021Z,100.00
2023-04-09T05:12:52.696Z,100.00
2023-04-09T05:15:28.927Z,100.00
2023-04-09T05:17:58.225Z,99.87
2023-04-09T05:20:28.701Z,99.47
2023-04-09T05:23:10.326Z,99.22
2023-04-09T05:25:42.801Z,99.38
2023-04-09T05:28:31.264Z,99.60
2023-04-09T05:31:13.125Z,99.45
2023-04-09T05:33:49.041Z,99.23
2023-04-09T05:36:23.128Z,98.97
2023-04-09T05:38:53.043Z,98.11
2023-04-09T05:41:21.554Z,97.83
2023-04-09T05:44:09.756Z,97.37
2023-04-09T05:46:40.631Z,96.77
2023-04-09T05:49:09.846Z,95.83
2023-04-09T05:51:39.781Z,95.38
2023-04-09T05:54:08.003Z,95.11
2023-04-09T05:56:38.866Z,94.78
2023-04-09T05:59:09.231Z,94.52
2023-04-09T06:01:37.545Z,93.99
2023-04-09T06:04:06.430Z,93.18
2023-04-09T06:06:35.820Z,93.30
2023-04-09T06:09:04.605Z,93.05
2023-04-09T06:11:33.827Z,92.83
2023-04-09T06:14:01.937Z,93.22
2023-04-09T06:16:31.990Z,92.64
2023-04-09T06:19:00.620Z,92.16
2023-04-09T06:21:29.306Z,91.60
2023-04-09T06:23:57.864Z,91.41
2023-04-09T06:26:26.250Z,91.55
2023-04-09T06:28:54.683Z,90.59
2023-04-09T06:31:23.283Z,89.37
2023-04-09T06:33:53.069Z,88.81
2023-04-09T06:36:21.721Z,88.63
2023-04-09T06:38:49.697Z,86.34
2023-04-09T06:41:17.841Z,85.13
2023-04-09T06:43:46.085Z,85.77
2023-04-09T06:46:17.304Z,84.23
2023-04-09T06:48:45.433Z,81.95
2023-04-09T06:51:16.169Z,77.42
2023-04-09T06:53:44.416Z,77.64
2023-04-09T06:56:12.917Z,76.16
2023-04-09T06:58:41.265Z,78.58
2023-04-09T07:01:09.575Z,78.39
2023-04-09T07:03:37.913Z,75.93
2023-04-09T07:06:06.089Z,62.36
2023-04-09T07:08:36.210Z,50.72
2023-04-09T07:11:04.741Z,48.54
2023-04-09T07:13:33.665Z,46.75
2023-04-09T07:16:02.027Z,47.84
2023-04-09T07:18:30.614Z,47.98
2023-04-09T07:20:59.402Z,46.76
2023-04-09T07:23:27.749Z,46.32
2023-04-09T07:25:57.423Z,46.20
2023-04-09T07:28:25.386Z,47.69
2023-04-09T07:30:54.008Z,49.45
2023-04-09T07:33:22.965Z,45.68
2023-04-09T07:35:51.302Z,46.91
2023-04-09T07:38:19.549Z,43.15
2023-04-09T07:40:47.526Z,40.78
2023-04-09T07:43:17.458Z,44.22
2023-04-09T07:45:52.927Z,45.10
2023-04-09T07:48:21.436Z,44.44
2023-04-09T07:50:49.742Z,47.95
2023-04-09T07:53:17.985Z,49.58
2023-04-09T07:55:46.704Z,56.89
2023-04-09T07:58:15.883Z,56.60
2023-04-09T08:00:45.699Z,55.20
2023-04-09T08:03:14.042Z,55.39
2023-04-09T08:05:42.539Z,55.34
2023-04-09T08:08:10.855Z,54.64
2023-04-09T08:10:39.184Z,55.82
2023-04-09T08:13:07.444Z,56.67
2023-04-09T08:15:36.911Z,57.13
2023-04-09T08:18:06.722Z,54.88
2023-04-09T08:20:34.932Z,53.00
2023-04-09T08:23:03.317Z,46.13
2023-04-09T08:25:31.552Z,47.92
2023-04-09T08:27:59.584Z,43.97
2023-04-09T08:30:27.655Z,45.71
2023-04-09T08:32:56.229Z,49.17
2023-04-09T08:35:26.123Z,52.23
2023-04-09T08:37:54.400Z,53.82
2023-04-09T08:40:22.926Z,56.28
2023-04-09T08:42:56.841Z,56.76
2023-04-09T08:45:50.093Z,57.80
2023-04-09T08:48:19.628Z,57.38
2023-04-09T08:50:49.875Z,54.05
2023-04-09T08:53:18.974Z,49.48
2023-04-09T08:55:47.826Z,44.99
2023-04-09T08:58:16.419Z,47.35
2023-04-09T09:00:44.909Z,46.76
2023-04-09T09:03:14.544Z,49.94
2023-04-09T09:05:44.127Z,52.82
2023-04-09T09:08:24.954Z,55.99
2023-04-09T09:10:53.741Z,56.29
2023-04-09T09:13:26.289Z,58.35
2023-04-09T09:15:56.812Z,59.25
2023-04-09T09:18:39.028Z,60.72
2023-04-09T09:21:14.455Z,60.76
2023-04-09T09:23:45.449Z,62.86
2023-04-09T09:26:14.867Z,58.78
2023-04-09T09:28:43.388Z,60.02
2023-04-09T09:31:13.222Z,55.80
2023-04-09T09:33:50.877Z,55.24
2023-04-09T09:36:33.657Z,53.70
2023-04-09T09:39:09.952Z,47.02
2023-04-09T09:41:38.945Z,42.47
2023-04-09T09:44:08.532Z,42.27
2023-04-09T09:46:38.841Z,43.59
2023-04-09T09:49:07.683Z,41.27
2023-04-09T09:51:39.772Z,38.02
2023-04-09T09:54:13.030Z,41.29
2023-04-09T09:56:43.546Z,45.12
2023-04-09T09:59:17.626Z,50.69
2023-04-09T10:01:48.906Z,48.60
2023-04-09T10:04:19.735Z,52.13
2023-04-09T10:06:52.148Z,54.53
2023-04-09T10:09:24.638Z,53.26
2023-04-09T10:11:53.555Z,54.22
2023-04-09T10:14:23.346Z,51.92
2023-04-09T10:16:52.515Z,51.70
2023-04-09T10:19:22.419Z,51.51
2023-04-09T10:21:55.094Z,50.12
2023-04-09T10:24:26.019Z,49.21
2023-04-09T10:26:56.173Z,47.00
2023-04-09T10:29:30.424Z,47.72
2023-04-09T10:32:06.969Z,47.66
2023-04-09T10:34:37.538Z,45.39
2023-04-09T10:37:09.661Z,46.68
2023-04-09T10:39:45.095Z,47.11
2023-04-09T10:42:16.279Z,46.84
2023-04-09T10:44:45.051Z,47.10
2023-04-09T10:47:13.730Z,48.32
2023-04-09T10:49:44.621Z,47.81
2023-04-09T10:52:13.818Z,48.25
2023-04-09T10:54:46.395Z,48.41
2023-04-09T10:57:23.044Z,51.33
2023-04-09T10:59:52.949Z,51.32
2023-04-09T11:03:09.712Z,51.03
2023-04-09T11:05:39.275Z,52.75
2023-04-09T11:08:10.838Z,51.22
2023-04-09T11:10:42.135Z,51.58
2023-04-09T11:13:13.276Z,51.71
2023-04-09T11:15:42.136Z,53.16
2023-04-09T11:18:12.107Z,52.91
2023-04-09T11:20:40.931Z,50.18
2023-04-09T11:23:09.070Z,49.52
2023-04-09T11:25:37.649Z,50.47
2023-04-09T11:28:08.576Z,52.94
2023-04-09T11:30:38.705Z,52.16
2023-04-09T11:33:08.828Z,52.53
2023-04-09T11:35:37.692Z,52.38
2023-04-09T11:38:09.815Z,52.14
2023-04-09T11:40:43.610Z,51.51
2023-04-09T11:43:13.166Z,52.33
2023-04-09T11:45:41.959Z,54.09
2023-04-09T11:48:10.313Z,54.84
2023-04-09T11:50:39.037Z,52.85
2023-04-09T11:53:18.264Z,50.79
2023-04-09T11:55:48.761Z,52.77
2023-04-09T11:58:18.866Z,50.96
2023-04-09T12:00:47.141Z,51.95
2023-04-09T12:03:17.195Z,47.46
2023-04-09T12:05:50.996Z,49.31
2023-04-09T12:08:24.421Z,50.52
2023-04-09T12:10:53.864Z,47.63
2023-04-09T12:13:33.861Z,46.05
2023-04-09T12:16:02.773Z,50.28
2023-04-09T12:18:31.014Z,53.19
2023-04-09T12:21:01.231Z,52.31
2023-04-09T12:23:31.506Z,49.46
2023-04-09T12:26:01.391Z,51.07
2023-04-09T12:28:31.329Z,50.87
2023-04-09T12:30:59.760Z,50.68
2023-04-09T12:33:28.110Z,50.49
2023-04-09T12:35:58.440Z,52.71
2023-04-09T12:38:26.917Z,48.28
2023-04-09T12:40:55.517Z,50.82
2023-04-09T12:43:23.861Z,51.20
2023-04-09T12:45:53.566Z,52.58
2023-04-09T12:48:21.868Z,45.18
2023-04-09T12:50:50.327Z,46.59
2023-04-09T12:53:18.551Z,45.99
2023-04-09T12:55:46.933Z,47.55
2023-04-09T12:58:15.464Z,45.66
2023-04-09T13:00:43.864Z,47.23
2023-04-09T13:03:16.846Z,46.61
2023-04-09T13:05:46.032Z,45.41
2023-04-09T13:08:14.048Z,49.00
2023-04-09T13:10:42.423Z,45.24
2023-04-09T13:13:13.023Z,44.75
2023-04-09T13:15:43.384Z,46.35
2023-04-09T13:18:11.885Z,44.96
2023-04-09T13:20:41.625Z,45.07
2023-04-09T13:23:09.962Z,47.35
2023-04-09T13:25:38.072Z,46.83
2023-04-09T13:28:06.601Z,46.22
2023-04-09T13:30:34.924Z,47.52
2023-04-09T13:33:03.156Z,47.68
2023-04-09T13:35:32.129Z,48.79
2023-04-09T13:38:02.304Z,49.63
2023-04-09T13:40:30.951Z,45.10
2023-04-09T13:42:59.137Z,45.46
2023-04-09T13:45:27.279Z,47.40
2023-04-09T13:47:55.340Z,45.59
2023-04-09T13:50:23.695Z,47.88
2023-04-09T13:52:51.992Z,47.84
2023-04-09T13:55:21.844Z,47.89
2023-04-09T13:57:49.883Z,45.60
2023-04-09T14:00:19.956Z,45.53
2023-04-09T14:02:48.432Z,47.38
2023-04-09T14:05:16.682Z,48.61
2023-04-09T14:07:44.923Z,49.94
2023-04-09T14:10:13.510Z,49.67
2023-04-09T14:12:43.302Z,50.27
2023-04-09T14:15:12.398Z,49.60
2023-04-09T14:17:41.227Z,49.65
2023-04-09T14:20:10.607Z,48.23
2023-04-09T14:22:40.127Z,50.38
2023-04-09T14:25:14.040Z,50.74
2023-04-09T14:27:44.847Z,50.93
2023-04-09T14:30:14.108Z,52.24
2023-04-09T14:32:43.298Z,52.99
2023-04-09T14:35:12.045Z,49.25
2023-04-09T14:37:41.148Z,49.37
2023-04-09T14:40:10.493Z,50.73
2023-04-09T14:42:39.244Z,49.58
2023-04-09T14:45:13.182Z,48.89
2023-04-09T14:47:41.606Z,49.33
2023-04-09T14:50:12.905Z,49.21
2023-04-09T14:52:41.146Z,45.75
2023-04-09T14:55:12.630Z,46.23
2023-04-09T14:57:41.880Z,47.46
2023-04-09T15:00:13.431Z,47.70
2023-04-09T15:02:42.275Z,47.88
2023-04-09T15:05:12.230Z,48.32
2023-04-09T15:07:41.106Z,49.51
2023-04-09T15:10:10.281Z,50.87
2023-04-09T15:12:38.302Z,52.71
2023-04-09T15:15:08.709Z,49.43
2023-04-09T15:17:39.153Z,49.97
2023-04-09T15:20:08.936Z,46.18
2023-04-09T15:22:37.363Z,43.83
2023-04-09T15:25:06.347Z,44.40
2023-04-09T15:27:34.504Z,45.63
2023-04-09T15:30:03.563Z,48.28
2023-04-09T15:32:32.837Z,48.90
2023-04-09T15:35:03.446Z,49.51
2023-04-09T15:37:32.204Z,50.90
2023-04-09T15:40:00.599Z,51.48
2023-04-09T15:42:36.414Z,52.00
2023-04-09T15:45:08.077Z,52.59
2023-04-09T15:47:36.458Z,51.98
2023-04-09T15:50:07.665Z,53.80
2023-04-09T15:52:36.443Z,54.05
2023-04-09T15:55:04.711Z,54.55
2023-04-09T15:57:33.411Z,55.24
2023-04-09T16:00:01.718Z,55.92
2023-04-09T16:02:34.657Z,57.33
2023-04-09T16:05:03.146Z,57.73
2023-04-09T16:07:32.996Z,57.85
2023-04-09T16:10:02.045Z,58.36
2023-04-09T16:12:30.716Z,57.98
2023-04-09T16:14:59.646Z,58.70
2023-04-09T16:17:28.631Z,59.09
2023-04-09T16:19:57.184Z,58.74
2023-04-09T16:22:25.466Z,58.57
2023-04-09T16:24:55.187Z,59.80
2023-04-09T16:27:23.298Z,60.82
2023-04-09T16:29:52.306Z,60.81
2023-04-09T16:32:21.220Z,59.73
2023-04-09T16:34:49.539Z,60.36
2023-04-09T16:37:17.927Z,60.31
2023-04-09T16:39:46.188Z,60.02
2023-04-09T16:42:15.956Z,60.43
2023-04-09T16:44:44.071Z,61.28
2023-04-09T16:47:12.506Z,61.04
2023-04-09T16:49:40.938Z,61.12
2023-04-09T16:52:09.015Z,60.80
2023-04-09T16:54:37.250Z,61.96
2023-04-09T16:57:05.444Z,62.56
2023-04-09T16:59:35.580Z,62.47
2023-04-09T17:02:07.303Z,62.44
2023-04-09T17:04:37.749Z,63.54
2023-04-09T17:07:06.282Z,63.41
2023-04-09T17:09:35.873Z,64.22
2023-04-09T17:12:04.532Z,64.36
2023-04-09T17:14:34.633Z,64.63
2023-04-09T17:17:05.543Z,64.88
2023-04-09T17:19:34.135Z,65.72
2023-04-09T17:22:02.960Z,65.81
2023-04-09T17:24:32.157Z,66.12
2023-04-09T17:27:01.059Z,65.80
2023-04-09T17:29:29.361Z,66.50
2023-04-09T17:31:57.967Z,66.79
2023-04-09T17:34:28.388Z,67.34
2023-04-09T17:37:00.245Z,68.31
2023-04-09T17:39:29.897Z,68.51
2023-04-09T17:41:58.518Z,68.58
2023-04-09T17:44:28.438Z,68.54
2023-04-09T17:46:56.526Z,68.87
2023-04-09T17:49:24.792Z,69.57
2023-04-09T17:51:55.924Z,69.76
2023-04-09T17:54:24.520Z,70.06
2023-04-09T17:56:53.269Z,70.40
2023-04-09T17:59:22.016Z,69.91
2023-04-09T18:01:50.931Z,70.59
2023-04-09T18:04:19.942Z,70.43
2023-04-09T18:06:48.685Z,70.23
2023-04-09T18:09:19.518Z,70.38
2023-04-09T18:11:49.004Z,70.54
2023-04-09T18:14:18.041Z,71.20
2023-04-09T18:16:46.457Z,71.23
2023-04-09T18:19:15.791Z,70.05
2023-04-09T18:21:45.150Z,70.53
2023-04-09T18:24:13.774Z,70.78
2023-04-09T18:26:43.794Z,71.07
2023-04-09T18:29:11.960Z,70.93
2023-04-09T18:31:40.156Z,71.63
2023-04-09T18:34:08.425Z,71.04
2023-04-09T18:36:36.544Z,71.23
2023-04-09T18:39:06.766Z,72.16
2023-04-09T18:41:34.922Z,72.57
2023-04-09T18:44:05.452Z,71.92
2023-04-09T18:46:33.825Z,71.97
2023-04-09T18:49:02.257Z,71.93
2023-04-09T18:51:32.135Z,71.55
2023-04-09T18:54:01.033Z,71.37
2023-04-09T18:56:29.979Z,70.88
2023-04-09T18:59:22.278Z,71.23
2023-04-09T19:01:52.058Z,71.80
2023-04-09T19:04:20.808Z,72.19
2023-04-09T19:06:50.207Z,72.07
2023-04-09T19:09:18.695Z,72.48
2023-04-09T19:11:47.347Z,73.31
2023-04-09T19:14:15.525Z,73.55
2023-04-09T19:16:44.843Z,73.45
2023-04-09T19:19:14.686Z,73.80
2023-04-09T19:21:43.196Z,73.85
2023-04-09T19:24:11.844Z,74.32
2023-04-09T19:26:40.454Z,75.41
2023-04-09T19:29:09.933Z,75.67
2023-04-09T19:31:38.077Z,75.95
2023-04-09T19:34:07.062Z,75.91
2023-04-09T19:36:37.004Z,76.22
2023-04-09T19:39:07.944Z,76.58
2023-04-09T19:41:37.159Z,77.33
2023-04-09T19:44:07.437Z,78.28
2023-04-09T19:46:36.609Z,79.02
2023-04-09T19:49:05.355Z,79.43
2023-04-09T19:51:33.864Z,79.10
2023-04-09T19:54:03.821Z,77.81
2023-04-09T19:56:32.982Z,77.80
2023-04-09T19:59:02.656Z,77.88
2023-04-09T20:01:31.466Z,77.47
2023-04-09T20:04:00.413Z,78.31
2023-04-09T20:06:29.135Z,77.84
2023-04-09T20:08:58.125Z,77.84
2023-04-09T20:11:28.837Z,77.31
2023-04-09T20:13:57.566Z,76.42
2023-04-09T20:16:26.365Z,75.20
2023-04-09T20:18:54.677Z,74.54
2023-04-09T20:21:23.609Z,74.90
2023-04-09T20:23:51.897Z,73.15
2023-04-09T20:26:20.376Z,72.38
2023-04-09T20:28:50.996Z,70.52
2023-04-09T20:31:20.229Z,70.01
2023-04-09T20:33:48.816Z,68.47
2023-04-09T20:36:17.651Z,68.60
2023-04-09T20:38:46.707Z,69.48
2023-04-09T20:41:15.029Z,68.97
2023-04-09T20:43:43.484Z,68.75
2023-04-09T20:46:13.838Z,68.53
2023-04-09T20:48:42.840Z,68.95
2023-04-09T20:51:12.007Z,69.47
2023-04-09T20:53:40.210Z,70.14
2023-04-09T20:56:11.527Z,70.23
2023-04-09T20:58:42.606Z,71.28
2023-04-09T21:01:11.227Z,71.33
2023-04-09T21:03:41.535Z,72.12
2023-04-09T21:06:10.100Z,71.26
2023-04-09T21:08:42.742Z,72.58
2023-04-09T21:11:11.580Z,72.82
2023-04-09T21:13:53.188Z,73.11
2023-04-09T21:16:23.658Z,73.78
2023-04-09T21:18:53.529Z,74.31
2023-04-09T21:21:21.965Z,75.26
2023-04-09T21:23:50.131Z,76.15
2023-04-09T21:26:18.398Z,76.00
2023-04-09T21:28:50.561Z,77.01
2023-04-09T21:31:19.105Z,77.79
2023-04-09T21:33:47.828Z,78.07
2023-04-09T21:36:18.254Z,78.76
2023-04-09T21:38:46.510Z,79.20
2023-04-09T21:41:14.877Z,80.12
2023-04-09T21:43:42.957Z,80.95
2023-04-09T21:46:11.089Z,81.74
2023-04-09T21:48:40.995Z,83.35
2023-04-09T21:53:41.553Z,84.07
2023-04-09T21:56:10.618Z,83.92
2023-04-09T21:58:38.903Z,83.95
2023-04-09T22:01:15.805Z,84.18
2023-04-09T22:03:51.458Z,83.43
2023-04-09T22:06:19.758Z,83.57
2023-04-09T22:08:56.166Z,82.86
2023-04-09T22:11:28.083Z,82.09
2023-04-09T22:13:57.663Z,81.99
2023-04-09T22:16:26.595Z,82.66
2023-04-09T22:18:56.596Z,82.25
2023-04-09T22:21:26.586Z,83.12
2023-04-09T22:23:56.726Z,85.26
2023-04-09T22:26:25.035Z,86.52
2023-04-09T22:28:54.832Z,86.85
2023-04-09T22:31:24.919Z,86.97
2023-04-09T22:33:53.484Z,86.46
2023-04-09T22:36:22.982Z,86.11
2023-04-09T22:38:51.974Z,86.19
2023-04-09T22:41:23.292Z,86.02
2023-04-09T22:43:52.503Z,85.41
2023-04-09T22:46:21.424Z,85.01
2023-04-09T22:48:51.675Z,84.72
2023-04-09T22:51:20.351Z,85.08
2023-04-09T22:53:48.774Z,86.12
2023-04-09T22:56:16.975Z,86.96
2023-04-09T22:58:46.627Z,86.37
2023-04-09T23:01:14.696Z,85.88
2023-04-09T23:04:08.456Z,85.98
2023-04-09T23:06:37.870Z,87.34
2023-04-09T23:09:05.996Z,86.96
2023-04-09T23:11:34.114Z,86.43
2023-04-09T23:14:03.863Z,86.94
2023-04-09T23:16:32.613Z,87.26
2023-04-09T23:19:00.993Z,87.50
2023-04-09T23:21:29.173Z,87.16
2023-04-09T23:23:57.340Z,87.38
2023-04-09T23:26:25.759Z,87.26
2023-04-09T23:28:54.193Z,87.53
2023-04-09T23:31:24.120Z,87.85
2023-04-09T23:33:53.017Z,87.89
2023-04-09T23:36:21.993Z,88.23
2023-04-09T23:38:50.526Z,88.18
2023-04-09T23:41:19.152Z,88.19
2023-04-09T23:43:47.590Z,87.70
2023-04-09T23:46:15.757Z,87.40
2023-04-09T23:48:46.851Z,86.92
2023-04-09T23:51:18.407Z,87.33
2023-04-09T23:53:46.724Z,87.49
2023-04-09T23:56:15.014Z,88.20
2023-04-09T23:58:43.683Z,89.01
